OEPA

Qaisumah Domestic Airport

Airport
ICAO code
OEPA
Summary
ICAO Region
MID
ICAO Territory
Location

Qaisumah,

Coordinates
28° 20' 4" N , 46° 7' 17" E
KCC
Metar
Observation
OEPA 271400Z 00000KT CAVOK 17/03 Q1022 NOSIG
Station
Al Qaysumah
Date/Time
2023-01-27 14:00:00
Wind direction
Wind speed
00 kts
Lowest cloud amount
clouds and visibility OK
Temperature
17°C
Dew point
3°C
Humidity
39%
QNH
1022 hPa
Weather condition
n/a

Description

Qaisumah Domestic Airport is located 15 km southeast of Qaisumah (Al Qaysumah), Saudi Arabia.

Climatology

Hot Desert Climate (Köppen climate classification BWh) - Hot desert climates are typically found in the subtropics where there is unbroken sunshine for the whole year due to the stable descending air and high pressure, little or no precipitation. Maximum temperatures of 40°C to 45°C are not uncommon, particularly during the warmer months of the year. During colder periods of the year, night-time temperatures can drop to freezing or below due to the exceptional radiation loss under the clear skies. However, very rarely do temperatures drop far below freezing.

Runways

Designator Length Width Surface Rops
16/34 3000 45 ASP Yes/Yes

Airport map

Aerial View

SKYbrary Partners:

Safety knowledge contributed by: